createdAt,value
2019-05-21T00:00:15.414Z,63.07
2019-05-21T00:02:44.858Z,66.77
2019-05-21T00:05:14.350Z,68.70
2019-05-21T00:07:43.814Z,70.37
2019-05-21T00:10:14.438Z,67.13
2019-05-21T00:12:43.963Z,74.50
2019-05-21T00:15:13.472Z,69.80
2019-05-21T00:17:42.932Z,75.87
2019-05-21T00:20:14.636Z,75.87
2019-05-21T00:22:44.091Z,73.93
2019-05-21T00:25:17.019Z,75.57
2019-05-21T00:27:45.292Z,67.87
2019-05-21T00:31:09.946Z,69.10
2019-05-21T00:34:43.670Z,67.40
2019-05-21T00:38:00.418Z,78.40
2019-05-21T00:41:24.899Z,85.83
2019-05-21T00:43:57.958Z,87.40
2019-05-21T00:46:27.425Z,78.63
2019-05-21T00:48:56.841Z,80.87
2019-05-21T00:51:26.315Z,74.37
2019-05-21T00:53:55.737Z,84.17
2019-05-21T00:56:25.170Z,80.13
2019-05-21T00:58:54.612Z,90.37
2019-05-21T01:01:24.031Z,84.07
2019-05-21T01:03:53.605Z,80.73
2019-05-21T01:06:23.027Z,76.13
2019-05-21T01:08:52.440Z,76.60
2019-05-21T01:11:21.884Z,74.60
2019-05-21T01:13:51.307Z,73.97
2019-05-21T01:16:20.774Z,70.37
2019-05-21T01:18:50.355Z,71.30
2019-05-21T01:21:20.042Z,74.40
2019-05-21T01:23:49.489Z,69.50
2019-05-21T01:26:19.186Z,71.90
2019-05-21T01:28:48.621Z,78.90
2019-05-21T01:31:18.312Z,61.67
2019-05-21T01:33:47.774Z,57.47
2019-05-21T01:36:17.209Z,73.63
2019-05-21T01:38:46.635Z,70.43
2019-05-21T01:41:16.082Z,77.07
2019-05-21T01:43:45.503Z,82.17
2019-05-21T01:46:15.016Z,76.87
2019-05-21T01:48:44.435Z,79.47
2019-05-21T01:51:13.866Z,88.70
2019-05-21T01:53:43.285Z,83.50
2019-05-21T01:56:12.722Z,78.03
2019-05-21T01:58:42.188Z,80.17
2019-05-21T02:01:12.189Z,79.80
2019-05-21T02:03:41.624Z,79.67
2019-05-21T02:06:11.314Z,71.67
2019-05-21T02:08:40.740Z,67.40
2019-05-21T02:11:10.185Z,72.53
2019-05-21T02:13:39.619Z,65.90
2019-05-21T02:16:09.199Z,71.63
2019-05-21T02:18:38.630Z,72.37
2019-05-21T02:21:08.059Z,66.70
2019-05-21T02:23:37.876Z,64.50
2019-05-21T02:26:07.446Z,55.63
2019-05-21T02:28:37.300Z,61.17
2019-05-21T02:31:06.818Z,63.90
2019-05-21T02:33:36.222Z,61.83
2019-05-21T02:36:05.815Z,66.13
2019-05-21T02:38:35.238Z,62.90
2019-05-21T02:41:04.777Z,60.50
2019-05-21T02:43:34.266Z,59.47
2019-05-21T02:46:03.770Z,65.37
2019-05-21T02:48:33.198Z,53.57
2019-05-21T02:51:02.628Z,67.13
2019-05-21T02:53:34.573Z,64.53
2019-05-21T02:56:03.227Z,59.83
2019-05-21T02:58:32.717Z,65.57
2019-05-21T03:01:13.155Z,65.83
2019-05-21T03:03:42.911Z,63.87
2019-05-21T03:06:14.729Z,61.83
2019-05-21T03:08:43.563Z,65.37
2019-05-21T03:11:13.086Z,64.23
2019-05-21T03:13:42.500Z,58.40
2019-05-21T03:16:11.950Z,65.13
2019-05-21T03:18:41.403Z,67.17
2019-05-21T03:21:10.814Z,59.87
2019-05-21T03:23:40.267Z,65.43
2019-05-21T03:26:10.074Z,65.97
2019-05-21T03:28:39.487Z,55.53
2019-05-21T03:31:08.929Z,56.17
2019-05-21T03:33:38.354Z,58.10
2019-05-21T03:36:07.842Z,57.60
2019-05-21T03:38:37.291Z,59.43
2019-05-21T03:41:06.782Z,53.63
2019-05-21T03:43:36.298Z,50.00
2019-05-21T03:46:05.784Z,47.63
2019-05-21T03:48:35.280Z,51.40
2019-05-21T03:51:04.842Z,44.20
2019-05-21T03:53:34.356Z,49.40
2019-05-21T03:56:04.192Z,44.77
2019-05-21T03:58:33.620Z,46.93
2019-05-21T04:01:03.198Z,50.13
2019-05-21T04:03:32.619Z,45.93
2019-05-21T04:06:02.132Z,47.67
2019-05-21T04:08:31.907Z,47.37
2019-05-21T04:11:01.330Z,49.03
2019-05-21T04:13:30.760Z,51.27
2019-05-21T04:16:05.023Z,48.27
2019-05-21T04:18:38.708Z,53.90
2019-05-21T04:21:08.131Z,54.23
2019-05-21T04:23:37.618Z,55.77
2019-05-21T04:26:07.104Z,61.63
2019-05-21T04:28:36.535Z,58.33
2019-05-21T04:31:06.232Z,56.73
2019-05-21T04:33:35.658Z,61.30
2019-05-21T04:36:05.260Z,56.73
2019-05-21T04:38:34.687Z,51.00
2019-05-21T04:41:04.188Z,55.30
2019-05-21T04:43:33.940Z,53.30
2019-05-21T04:46:03.634Z,58.87
2019-05-21T04:48:33.098Z,55.67
2019-05-21T04:51:02.521Z,54.87
2019-05-21T04:53:32.015Z,60.93
2019-05-21T04:56:01.453Z,58.50
2019-05-21T04:58:30.877Z,55.33
2019-05-21T05:01:00.353Z,60.80
2019-05-21T05:03:29.766Z,58.37
2019-05-21T05:05:59.185Z,59.83
2019-05-21T05:08:28.706Z,64.97
2019-05-21T05:10:58.194Z,60.47
2019-05-21T05:13:27.957Z,63.83
2019-05-21T05:15:57.452Z,60.57
2019-05-21T05:18:26.894Z,63.43
2019-05-21T05:20:56.336Z,57.00
2019-05-21T05:23:25.761Z,61.13
2019-05-21T05:25:55.196Z,67.43
2019-05-21T05:28:24.626Z,60.80
2019-05-21T05:30:54.071Z,62.97
2019-05-21T05:33:23.491Z,60.57
2019-05-21T05:35:52.929Z,52.27
2019-05-21T05:38:22.367Z,58.30
2019-05-21T05:40:51.800Z,61.47
2019-05-21T05:43:21.533Z,57.30
2019-05-21T05:45:50.966Z,59.50
2019-05-21T05:48:20.546Z,59.37
2019-05-21T05:50:54.428Z,55.27
2019-05-21T05:53:23.846Z,50.77
2019-05-21T05:55:53.302Z,56.13
2019-05-21T05:58:22.754Z,47.93
2019-05-21T06:00:52.170Z,44.40
2019-05-21T06:03:21.619Z,44.80
2019-05-21T06:05:51.098Z,40.03
2019-05-21T06:08:20.633Z,43.50
2019-05-21T06:10:50.056Z,44.50
2019-05-21T06:13:19.778Z,41.97
2019-05-21T06:15:49.200Z,38.50
2019-05-21T06:18:18.689Z,38.63
2019-05-21T06:20:48.119Z,35.20
2019-05-21T06:23:17.640Z,35.40
2019-05-21T06:25:47.114Z,30.57
2019-05-21T06:28:16.582Z,33.73
2019-05-21T06:30:46.015Z,35.87
2019-05-21T06:33:15.473Z,32.57
2019-05-21T06:35:45.442Z,34.17
2019-05-21T06:38:18.185Z,33.77
2019-05-21T06:40:46.031Z,39.70
2019-05-21T06:43:17.663Z,29.53
2019-05-21T06:45:47.499Z,29.03
2019-05-21T06:48:16.927Z,31.27
2019-05-21T06:50:46.364Z,30.20
2019-05-21T06:53:15.868Z,29.03
2019-05-21T06:55:45.299Z,30.87
2019-05-21T06:58:14.748Z,27.50
2019-05-21T07:00:44.510Z,27.40
2019-05-21T07:03:14.014Z,30.37
2019-05-21T07:05:57.477Z,27.97
2019-05-21T07:08:14.585Z,27.23
2019-05-21T07:10:43.999Z,29.87
2019-05-21T07:13:13.421Z,28.13
2019-05-21T07:15:42.954Z,28.00
2019-05-21T07:18:12.656Z,25.77
2019-05-21T07:20:42.142Z,25.43
2019-05-21T07:23:11.664Z,24.17
2019-05-21T07:25:41.375Z,25.13
2019-05-21T07:28:10.821Z,25.40
2019-05-21T07:30:40.238Z,27.60
2019-05-21T07:33:09.741Z,28.57
2019-05-21T07:35:39.207Z,24.63
2019-05-21T07:38:08.793Z,26.57
2019-05-21T07:40:38.319Z,24.33
2019-05-21T07:43:07.806Z,25.80
2019-05-21T07:45:37.599Z,26.37
2019-05-21T07:48:07.015Z,21.87
2019-05-21T07:50:36.485Z,29.27
2019-05-21T07:53:05.924Z,29.13
2019-05-21T07:55:35.351Z,25.37
2019-05-21T07:58:04.869Z,27.30
2019-05-21T08:00:34.789Z,22.80
2019-05-21T08:03:04.274Z,28.60
2019-05-21T08:05:33.689Z,24.00
2019-05-21T08:08:03.133Z,24.97
2019-05-21T08:10:32.567Z,27.40
2019-05-21T08:13:02.002Z,27.13
2019-05-21T08:15:31.607Z,23.03
2019-05-21T08:18:01.038Z,31.00
2019-05-21T08:20:35.138Z,29.63
2019-05-21T08:23:04.583Z,27.93
2019-05-21T08:25:35.268Z,31.63
2019-05-21T08:28:04.839Z,31.53
2019-05-21T08:30:34.268Z,27.00
2019-05-21T08:33:03.719Z,26.20
2019-05-21T08:35:33.141Z,22.33
2019-05-21T08:38:06.492Z,22.90
2019-05-21T08:40:33.944Z,22.50
2019-05-21T08:43:03.398Z,23.67
2019-05-21T08:45:32.846Z,22.90
2019-05-21T08:48:02.369Z,21.80
2019-05-21T08:50:31.796Z,23.40
2019-05-21T08:53:01.235Z,23.50
2019-05-21T08:55:30.670Z,26.60
2019-05-21T08:58:07.048Z,28.23
2019-05-21T09:00:31.402Z,26.70
2019-05-21T09:03:00.888Z,27.70
2019-05-21T09:05:30.333Z,22.30
2019-05-21T09:07:59.833Z,20.13
2019-05-21T09:10:29.644Z,21.17
2019-05-21T09:12:59.078Z,22.93
2019-05-21T09:15:28.492Z,22.30
2019-05-21T09:17:57.941Z,20.60
2019-05-21T09:20:27.503Z,21.60
2019-05-21T09:22:57.017Z,22.63
2019-05-21T09:25:26.450Z,23.37
2019-05-21T09:27:55.903Z,17.13
2019-05-21T09:30:25.589Z,20.77
2019-05-21T09:32:55.005Z,19.27
2019-05-21T09:35:24.662Z,26.13
2019-05-21T09:37:54.094Z,21.40
2019-05-21T09:40:25.015Z,18.37
2019-05-21T09:42:54.523Z,23.73
2019-05-21T09:45:24.068Z,20.17
2019-05-21T09:47:53.517Z,19.00
2019-05-21T09:50:24.532Z,22.33
2019-05-21T09:52:54.080Z,21.17
2019-05-21T09:55:23.607Z,19.67
2019-05-21T09:58:03.548Z,17.70
2019-05-21T10:00:34.867Z,17.43
2019-05-21T10:03:24.321Z,16.20
2019-05-21T10:05:53.814Z,17.97
2019-05-21T10:08:23.221Z,16.33
2019-05-21T10:10:52.684Z,12.50
2019-05-21T10:13:22.095Z,10.63
2019-05-21T10:15:51.532Z,10.50
2019-05-21T10:18:21.041Z,9.20
2019-05-21T10:20:50.472Z,12.63
2019-05-21T10:23:19.940Z,12.67
2019-05-21T10:25:49.356Z,13.93
2019-05-21T10:28:19.258Z,20.37
2019-05-21T10:30:48.824Z,13.53
2019-05-21T10:33:18.583Z,16.80
2019-05-21T10:35:48.416Z,13.37
2019-05-21T10:38:17.831Z,16.83
2019-05-21T10:40:47.371Z,13.57
2019-05-21T10:43:17.141Z,14.40
2019-05-21T10:45:46.686Z,15.77
2019-05-21T10:48:16.198Z,13.53
2019-05-21T10:50:45.673Z,17.80
2019-05-21T10:53:15.117Z,14.47
2019-05-21T10:55:44.825Z,15.77
2019-05-21T10:58:14.325Z,13.07
2019-05-21T11:01:08.062Z,15.20
2019-05-21T11:03:45.062Z,14.00
2019-05-21T11:06:16.607Z,12.87
2019-05-21T11:08:46.024Z,13.27
2019-05-21T11:11:15.576Z,14.27
2019-05-21T11:13:45.057Z,10.13
2019-05-21T11:16:14.578Z,15.13
2019-05-21T11:18:44.013Z,13.03
2019-05-21T11:21:13.497Z,13.80
2019-05-21T11:23:43.011Z,12.67
2019-05-21T11:26:12.463Z,11.53
2019-05-21T11:28:41.868Z,12.13
2019-05-21T11:31:11.327Z,10.07
2019-05-21T11:33:40.898Z,15.13
2019-05-21T11:36:10.359Z,14.33
2019-05-21T11:38:40.502Z,11.57
2019-05-21T11:41:10.158Z,13.63
2019-05-21T11:43:39.584Z,11.80
2019-05-21T11:46:09.142Z,10.60
2019-05-21T11:48:38.585Z,15.73
2019-05-21T11:51:08.090Z,11.57
2019-05-21T11:53:37.540Z,13.30
2019-05-21T11:56:07.096Z,11.87
2019-05-21T11:58:39.865Z,13.00
2019-05-21T12:01:07.877Z,10.13
2019-05-21T12:03:37.341Z,10.23
2019-05-21T12:06:06.800Z,10.17
2019-05-21T12:08:36.257Z,10.30
2019-05-21T12:11:05.808Z,11.27
2019-05-21T12:13:35.331Z,11.37
2019-05-21T12:16:04.877Z,9.77
2019-05-21T12:18:34.585Z,10.43
2019-05-21T12:21:04.355Z,9.00
2019-05-21T12:23:33.812Z,9.23
2019-05-21T12:26:03.399Z,8.33
2019-05-21T12:28:32.884Z,8.27
2019-05-21T12:31:02.323Z,9.20
2019-05-21T12:33:34.986Z,8.43
2019-05-21T12:36:02.932Z,7.40
2019-05-21T12:38:32.375Z,7.03
2019-05-21T12:41:01.805Z,7.73
2019-05-21T12:43:31.314Z,7.17
2019-05-21T12:46:00.867Z,7.60
2019-05-21T12:48:30.371Z,5.67
2019-05-21T12:50:59.789Z,7.13
2019-05-21T12:53:29.219Z,7.23
2019-05-21T12:55:58.927Z,8.30
2019-05-21T12:58:46.511Z,8.10
2019-05-21T13:01:16.056Z,6.67
2019-05-21T13:03:45.545Z,7.33
2019-05-21T13:06:15.023Z,7.93
2019-05-21T13:08:44.453Z,13.97
2019-05-21T13:11:13.994Z,8.60
2019-05-21T13:13:43.426Z,10.10
2019-05-21T13:16:12.928Z,8.03
2019-05-21T13:18:42.689Z,10.73
2019-05-21T13:21:12.235Z,9.53
2019-05-21T13:23:41.967Z,8.63
2019-05-21T13:26:11.535Z,6.87
2019-05-21T13:28:40.984Z,6.80
2019-05-21T13:31:10.504Z,8.40
2019-05-21T13:33:40.180Z,7.93
2019-05-21T13:36:09.747Z,9.38
2019-05-21T13:38:39.274Z,6.97
2019-05-21T13:41:10.490Z,7.90
2019-05-21T13:43:40.018Z,7.27
2019-05-21T13:46:09.602Z,6.92
2019-05-21T13:48:39.056Z,8.25
2019-05-21T13:51:08.645Z,8.27
2019-05-21T13:53:38.086Z,10.30
2019-05-21T13:56:07.872Z,12.97
2019-05-21T13:58:37.325Z,9.07
2019-05-21T14:01:08.174Z,12.87
2019-05-21T14:03:37.982Z,10.80
2019-05-21T14:06:07.458Z,10.70
2019-05-21T14:08:36.909Z,12.20
2019-05-21T14:11:06.763Z,12.70
2019-05-21T14:13:36.346Z,12.03
2019-05-21T14:16:05.846Z,14.73
2019-05-21T14:18:35.268Z,15.00
2019-05-21T14:21:04.848Z,8.90
2019-05-21T14:23:34.271Z,13.40
2019-05-21T14:26:03.778Z,10.30
2019-05-21T14:28:34.639Z,11.83
2019-05-21T14:31:04.514Z,13.53
2019-05-21T14:33:33.991Z,13.77
2019-05-21T14:36:03.484Z,13.30
2019-05-21T14:38:32.992Z,15.00
2019-05-21T14:41:02.484Z,13.17
2019-05-21T14:43:31.957Z,12.40
2019-05-21T14:46:01.422Z,12.80
2019-05-21T14:48:30.859Z,12.73
2019-05-21T14:51:00.293Z,14.47
2019-05-21T14:53:29.995Z,12.93
2019-05-21T14:55:59.451Z,10.37
2019-05-21T14:58:28.971Z,14.37
2019-05-21T15:00:58.396Z,13.83
2019-05-21T15:03:29.574Z,11.60
2019-05-21T15:05:59.410Z,10.83
2019-05-21T15:08:28.878Z,13.47
2019-05-21T15:10:58.354Z,14.20
2019-05-21T15:13:28.018Z,13.90
2019-05-21T15:15:57.602Z,15.53
2019-05-21T15:18:27.086Z,17.40
2019-05-21T15:21:07.277Z,12.90
2019-05-21T15:23:36.851Z,12.93
2019-05-21T15:26:06.407Z,13.90
2019-05-21T15:28:35.829Z,15.03
2019-05-21T15:31:05.397Z,14.43
2019-05-21T15:33:34.848Z,33.10
2019-05-21T15:36:10.588Z,14.50
2019-05-21T15:38:50.055Z,13.47
2019-05-21T15:41:12.743Z,33.13
2019-05-21T15:43:42.547Z,15.27
2019-05-21T15:46:12.005Z,22.30
2019-05-21T15:48:41.424Z,11.70
2019-05-21T15:51:10.922Z,13.37
2019-05-21T15:53:40.496Z,49.07
2019-05-21T15:56:09.913Z,35.30
2019-05-21T15:58:39.423Z,15.77
2019-05-21T16:01:09.124Z,15.80
2019-05-21T16:03:38.595Z,17.53
2019-05-21T16:06:08.152Z,15.20
2019-05-21T16:08:37.674Z,87.00
2019-05-21T16:11:07.804Z,17.90
2019-05-21T16:13:37.314Z,14.67
2019-05-21T16:16:06.758Z,16.87
2019-05-21T16:18:36.184Z,15.60
2019-05-21T16:21:05.758Z,16.13
2019-05-21T16:23:35.178Z,14.90
2019-05-21T16:26:04.733Z,15.47
2019-05-21T16:28:34.236Z,16.57
2019-05-21T16:31:03.653Z,13.87
2019-05-21T16:33:33.568Z,15.80
2019-05-21T16:36:02.992Z,17.43
2019-05-21T16:38:32.483Z,24.10
2019-05-21T16:41:01.941Z,20.50
2019-05-21T16:43:31.373Z,22.40
2019-05-21T16:46:01.009Z,22.30
2019-05-21T16:48:30.440Z,18.30
2019-05-21T16:50:59.929Z,21.00
2019-05-21T16:53:29.375Z,22.63
2019-05-21T16:55:59.162Z,27.23
2019-05-21T16:58:28.695Z,28.47
2019-05-21T17:00:58.347Z,25.87
2019-05-21T17:03:27.897Z,25.20
2019-05-21T17:05:57.330Z,25.70
2019-05-21T17:08:26.840Z,26.00
2019-05-21T17:10:56.433Z,24.40
2019-05-21T17:13:26.000Z,26.73
2019-05-21T17:15:55.540Z,28.83
2019-05-21T17:18:27.193Z,30.40
2019-05-21T17:20:56.699Z,28.90
2019-05-21T17:23:26.135Z,28.93
2019-05-21T17:25:55.632Z,34.20
2019-05-21T17:28:25.483Z,28.27
2019-05-21T17:30:54.905Z,37.87
2019-05-21T17:33:24.332Z,26.80
2019-05-21T17:35:53.866Z,30.60
2019-05-21T17:38:24.567Z,31.20
2019-05-21T17:40:54.552Z,34.57
2019-05-21T17:43:23.987Z,31.00
2019-05-21T17:45:53.421Z,31.33
2019-05-21T17:48:23.011Z,29.00
2019-05-21T17:50:52.497Z,30.23
2019-05-21T17:53:21.941Z,28.67
2019-05-21T17:55:51.842Z,26.80
2019-05-21T17:58:21.386Z,28.10
2019-05-21T18:00:58.312Z,31.43
2019-05-21T18:03:28.007Z,31.93
2019-05-21T18:05:58.286Z,31.57
2019-05-21T18:08:28.344Z,28.63
2019-05-21T18:10:58.504Z,32.33
2019-05-21T18:13:28.452Z,32.00
2019-05-21T18:15:58.360Z,31.60
2019-05-21T18:18:28.103Z,32.80
2019-05-21T18:20:57.799Z,30.07
2019-05-21T18:23:27.503Z,32.93
2019-05-21T18:25:57.084Z,30.77
2019-05-21T18:28:26.651Z,31.23
2019-05-21T18:30:56.153Z,29.73
2019-05-21T18:33:25.823Z,31.50
2019-05-21T18:35:55.334Z,28.67
2019-05-21T18:38:24.999Z,31.27
2019-05-21T18:40:54.582Z,31.27
2019-05-21T18:43:24.345Z,31.87
2019-05-21T18:45:53.770Z,24.87
2019-05-21T18:48:23.523Z,32.67
2019-05-21T18:50:53.073Z,30.53
2019-05-21T18:53:22.580Z,28.63
2019-05-21T18:55:52.000Z,33.77
2019-05-21T18:58:21.492Z,31.90
2019-05-21T19:00:51.060Z,31.67
2019-05-21T19:03:25.419Z,32.17
2019-05-21T19:05:51.774Z,35.17
2019-05-21T19:08:21.271Z,30.70
2019-05-21T19:10:52.459Z,33.37
2019-05-21T19:13:22.021Z,33.73
2019-05-21T19:15:51.578Z,34.17
2019-05-21T19:18:21.025Z,35.40
2019-05-21T19:20:50.874Z,35.00
2019-05-21T19:23:20.326Z,35.57
2019-05-21T19:25:50.096Z,35.10
2019-05-21T19:28:19.667Z,32.57
2019-05-21T19:30:49.090Z,36.33
2019-05-21T19:33:18.576Z,34.77
2019-05-21T19:35:48.152Z,38.90
2019-05-21T19:38:18.019Z,39.43
2019-05-21T19:40:47.902Z,36.87
2019-05-21T19:43:17.395Z,38.77
2019-05-21T19:45:46.876Z,40.17
2019-05-21T19:48:16.382Z,47.27
2019-05-21T19:50:46.030Z,44.50
2019-05-21T19:53:15.809Z,49.13
2019-05-21T19:55:45.416Z,41.50
2019-05-21T19:58:15.073Z,50.80
2019-05-21T20:00:48.829Z,48.90
2019-05-21T20:03:18.260Z,46.07
2019-05-21T20:05:48.780Z,46.70
2019-05-21T20:08:18.427Z,48.27
2019-05-21T20:10:48.298Z,49.73
2019-05-21T20:13:25.071Z,52.73
2019-05-21T20:15:49.120Z,52.23
2019-05-21T20:18:18.944Z,54.50
2019-05-21T20:20:49.917Z,55.43
2019-05-21T20:23:21.319Z,56.73
2019-05-21T20:25:56.541Z,55.97
2019-05-21T20:28:24.157Z,58.03
2019-05-21T20:30:53.675Z,64.47
2019-05-21T20:33:24.323Z,59.93
2019-05-21T20:35:55.990Z,56.47
2019-05-21T20:38:25.472Z,58.63
2019-05-21T20:40:55.198Z,57.47
2019-05-21T20:43:25.093Z,62.90
2019-05-21T20:45:54.603Z,61.20
2019-05-21T20:48:26.607Z,60.93
2019-05-21T20:50:56.111Z,58.10
2019-05-21T20:53:25.534Z,60.20
2019-05-21T20:55:55.312Z,62.37
2019-05-21T20:58:25.091Z,65.70
2019-05-21T21:00:59.326Z,65.63
2019-05-21T21:03:29.701Z,62.57
2019-05-21T21:05:59.649Z,62.60
2019-05-21T21:08:31.143Z,62.27
2019-05-21T21:11:00.708Z,62.20
2019-05-21T21:13:30.520Z,64.33
2019-05-21T21:16:00.012Z,64.73
2019-05-21T21:18:30.391Z,65.13
2019-05-21T21:20:59.966Z,63.53
2019-05-21T21:23:31.374Z,66.63
2019-05-21T21:26:00.881Z,70.17
2019-05-21T21:28:30.471Z,70.47
2019-05-21T21:31:00.033Z,65.67
2019-05-21T21:33:29.900Z,67.07
2019-05-21T21:35:59.928Z,71.47
2019-05-21T21:38:31.368Z,66.60
2019-05-21T21:41:00.797Z,67.80
2019-05-21T21:43:30.407Z,69.80
2019-05-21T21:45:59.974Z,63.83
2019-05-21T21:48:30.058Z,61.17
2019-05-21T21:50:59.863Z,69.23
2019-05-21T21:53:29.273Z,69.30
2019-05-21T21:55:58.804Z,68.47
2019-05-21T21:58:28.229Z,72.77
2019-05-21T22:01:12.543Z,70.90
2019-05-21T22:03:43.874Z,74.30
2019-05-21T22:06:17.089Z,68.27
2019-05-21T22:08:47.435Z,69.13
2019-05-21T22:11:17.407Z,72.67
2019-05-21T22:13:47.361Z,73.80
2019-05-21T22:16:17.027Z,62.63
2019-05-21T22:18:46.649Z,71.10
2019-05-21T22:21:17.299Z,72.67
2019-05-21T22:23:50.241Z,71.50
2019-05-21T22:26:18.529Z,73.00
2019-05-21T22:28:47.957Z,78.17
2019-05-21T22:31:17.526Z,75.33
2019-05-21T22:33:46.978Z,73.80
2019-05-21T22:36:16.754Z,69.10
2019-05-21T22:38:46.271Z,74.13
2019-05-21T22:41:15.698Z,76.03
2019-05-21T22:43:45.404Z,72.73
2019-05-21T22:46:14.884Z,68.83
2019-05-21T22:48:44.479Z,58.90
2019-05-21T22:51:13.989Z,63.43
2019-05-21T22:53:43.421Z,62.03
2019-05-21T22:56:13.182Z,65.63
2019-05-21T22:58:42.609Z,67.63
2019-05-21T23:01:12.337Z,68.47
2019-05-21T23:03:41.794Z,67.30
2019-05-21T23:06:11.267Z,66.97
2019-05-21T23:08:40.788Z,68.87
2019-05-21T23:11:10.446Z,68.70
2019-05-21T23:13:39.861Z,70.40
2019-05-21T23:16:10.325Z,67.30
2019-05-21T23:18:40.481Z,66.50
2019-05-21T23:21:11.240Z,66.13
2019-05-21T23:23:41.668Z,63.17
2019-05-21T23:26:11.811Z,62.77
2019-05-21T23:28:42.993Z,67.70
2019-05-21T23:31:13.143Z,61.13
2019-05-21T23:33:43.242Z,80.40
2019-05-21T23:36:13.709Z,80.97
2019-05-21T23:38:43.482Z,74.37
2019-05-21T23:41:13.151Z,69.90
2019-05-21T23:43:42.644Z,69.93
2019-05-21T23:46:13.788Z,72.13
2019-05-21T23:48:44.005Z,78.77
2019-05-21T23:51:13.526Z,66.90
2019-05-21T23:53:43.083Z,68.17
2019-05-21T23:56:12.488Z,66.20
2019-05-21T23:58:41.984Z,72.23
